createdAt,value
2022-12-10T00:04:02.361Z,0
2022-12-10T00:09:02.181Z,0
2022-12-10T00:14:01.442Z,0
2022-12-10T00:19:00.137Z,0
2022-12-10T00:23:58.831Z,0
2022-12-10T00:28:58.544Z,0
2022-12-10T00:33:58.527Z,0
2022-12-10T00:38:58.325Z,0
2022-12-10T00:43:57.911Z,0
2022-12-10T00:48:57.133Z,0
2022-12-10T00:53:56.316Z,0
2022-12-10T00:58:56.016Z,0
2022-12-10T01:03:54.634Z,0
2022-12-10T01:08:54.385Z,0
2022-12-10T01:13:52.979Z,0
2022-12-10T01:18:53.571Z,0
2022-12-10T01:23:53.236Z,0
2022-12-10T01:28:52.661Z,0
2022-12-10T01:33:52.518Z,0
2022-12-10T01:38:50.634Z,0
2022-12-10T01:43:50.709Z,0
2022-12-10T01:48:50.122Z,0
2022-12-10T01:53:49.211Z,0
2022-12-10T01:58:47.548Z,0
2022-12-10T02:03:47.491Z,0
2022-12-10T02:08:47.840Z,0
2022-12-10T02:13:46.632Z,0
2022-12-10T02:18:45.361Z,0
2022-12-10T02:23:44.233Z,0
2022-12-10T02:28:43.808Z,0
2022-12-10T02:33:43.612Z,0
2022-12-10T02:38:42.085Z,0
2022-12-10T02:43:40.988Z,0
2022-12-10T02:48:40.535Z,0
2022-12-10T02:53:39.432Z,0
2022-12-10T02:58:38.551Z,0
2022-12-10T02:59:58.492Z,0
2022-12-10T03:04:58.129Z,0
2022-12-10T03:09:57.891Z,0
2022-12-10T03:14:58.194Z,0
2022-12-10T03:19:57.187Z,0
2022-12-10T03:24:56.654Z,0
2022-12-10T03:29:56.201Z,0
2022-12-10T03:34:55.444Z,0
2022-12-10T03:39:54.453Z,0
2022-12-10T03:44:54.220Z,0
2022-12-10T03:49:53.896Z,0
2022-12-10T03:54:53.835Z,0
2022-12-10T03:59:10.767Z,0
2022-12-10T04:04:10.891Z,0
2022-12-10T04:09:08.530Z,0
2022-12-10T04:14:08.626Z,0
2022-12-10T04:19:07.844Z,0
2022-12-10T04:24:06.906Z,0
2022-12-10T04:29:05.623Z,0
2022-12-10T04:34:04.657Z,0
2022-12-10T04:39:04.382Z,0
2022-12-10T04:44:04.135Z,0
2022-12-10T04:49:02.854Z,0
2022-12-10T04:54:02.517Z,0
2022-12-10T04:58:48.646Z,0
2022-12-10T05:03:48.462Z,0
2022-12-10T05:08:48.051Z,0
2022-12-10T05:13:47.771Z,0
2022-12-10T05:18:46.530Z,0
2022-12-10T05:23:46.513Z,0
2022-12-10T05:28:46.111Z,0
2022-12-10T05:33:45.924Z,0
2022-12-10T05:38:44.199Z,0
2022-12-10T05:43:43.389Z,0
2022-12-10T05:48:41.587Z,0
2022-12-10T05:53:41.368Z,0
2022-12-10T05:58:40.866Z,0
2022-12-10T06:03:39.852Z,0
2022-12-10T06:08:38.514Z,0
2022-12-10T06:13:37.840Z,0
2022-12-10T06:18:36.917Z,0
2022-12-10T06:23:36.888Z,0
2022-12-10T06:28:35.519Z,0
2022-12-10T06:33:35.011Z,0
2022-12-10T06:38:33.604Z,0
2022-12-10T06:43:33.584Z,0
2022-12-10T06:48:33.459Z,0
2022-12-10T06:53:32.898Z,0
2022-12-10T06:58:32.159Z,0
2022-12-10T07:03:33.088Z,0
2022-12-10T07:08:30.963Z,0
2022-12-10T07:13:33.741Z,0
2022-12-10T07:18:28.670Z,0
2022-12-10T07:23:28.623Z,0
2022-12-10T07:28:28.033Z,0
2022-12-10T07:33:28.260Z,0
2022-12-10T07:38:27.134Z,0.01
2022-12-10T07:43:26.099Z,0.01
2022-12-10T07:48:25.343Z,0.01
2022-12-10T07:53:24.439Z,0.01
2022-12-10T07:58:20.382Z,0.02
2022-12-10T08:03:19.246Z,0.02
2022-12-10T08:08:30.272Z,0.02
2022-12-10T08:13:27.223Z,0.02
2022-12-10T08:18:26.363Z,0.03
2022-12-10T08:23:26.598Z,0.03
2022-12-10T08:28:25.699Z,0.04
2022-12-10T08:33:24.946Z,0.04
2022-12-10T08:38:24.452Z,0.04
2022-12-10T08:43:23.779Z,0.04
2022-12-10T08:48:23.038Z,0.05
2022-12-10T08:53:12.090Z,0.05
2022-12-10T08:58:10.995Z,0.05
2022-12-10T08:59:31.116Z,0.05
2022-12-10T09:04:29.913Z,0.05
2022-12-10T09:09:29.599Z,0.06
2022-12-10T09:14:29.336Z,0.06
2022-12-10T09:19:27.791Z,0.07
2022-12-10T09:24:27.404Z,0.08
2022-12-10T09:29:25.922Z,0.08
2022-12-10T09:34:25.825Z,0.08
2022-12-10T09:39:24.939Z,0.08
2022-12-10T09:44:24.459Z,0.08
2022-12-10T09:49:23.616Z,0.07
2022-12-10T09:54:22.090Z,0.06
2022-12-10T09:59:09.575Z,0.07
2022-12-10T10:04:08.580Z,0.08
2022-12-10T10:09:08.076Z,0.08
2022-12-10T10:14:07.256Z,0.08
2022-12-10T10:19:06.707Z,0.06
2022-12-10T10:24:14.228Z,0.07
2022-12-10T10:29:05.442Z,0.07
2022-12-10T10:34:04.691Z,0.08
2022-12-10T10:39:03.900Z,0.09
2022-12-10T10:44:03.911Z,0.1
2022-12-10T10:49:03.501Z,0.09
2022-12-10T10:54:10.340Z,0.09
2022-12-10T10:58:50.304Z,0.1
2022-12-10T11:03:49.948Z,0.1
2022-12-10T11:08:48.316Z,0.1
2022-12-10T11:13:48.389Z,0.1
2022-12-10T11:18:47.093Z,0.09
2022-12-10T11:23:46.469Z,0.09
2022-12-10T11:28:45.298Z,0.1
2022-12-10T11:33:45.214Z,0.1
2022-12-10T11:38:45.131Z,0.1
2022-12-10T11:43:45.203Z,0.12
2022-12-10T11:48:46.419Z,0.11
2022-12-10T11:53:43.495Z,0.12
2022-12-10T11:58:43.126Z,0.12
2022-12-10T12:03:42.951Z,0.12
2022-12-10T12:08:41.110Z,0.11
2022-12-10T12:13:40.489Z,0.1
2022-12-10T12:18:39.109Z,0.08
2022-12-10T12:23:38.397Z,0.08
2022-12-10T12:28:38.312Z,0.09
2022-12-10T12:33:37.445Z,0.09
2022-12-10T12:38:36.616Z,0.12
2022-12-10T12:43:36.313Z,0.13
2022-12-10T12:48:36.234Z,0.13
2022-12-10T12:53:38.907Z,0.12
2022-12-10T12:58:34.339Z,0.09
2022-12-10T12:59:54.762Z,0.09
2022-12-10T13:04:53.390Z,0.07
2022-12-10T13:09:53.337Z,0.06
2022-12-10T13:14:52.868Z,0.06
2022-12-10T13:19:51.650Z,0.06
2022-12-10T13:24:50.392Z,0.05
2022-12-10T13:29:49.849Z,0.05
2022-12-10T13:34:48.913Z,0.06
2022-12-10T13:39:48.586Z,0.06
2022-12-10T13:44:48.014Z,0.05
2022-12-10T13:49:46.951Z,0.05
2022-12-10T13:54:46.638Z,0.04
2022-12-10T13:58:49.294Z,0.04
2022-12-10T14:00:16.379Z,0.03
2022-12-10T14:05:08.558Z,0.03
2022-12-10T14:10:08.348Z,0.02
2022-12-10T14:15:08.954Z,0.03
2022-12-10T14:20:07.581Z,0.03
2022-12-10T14:25:05.584Z,0.03
2022-12-10T14:30:05.351Z,0.02
2022-12-10T14:35:04.076Z,0.02
2022-12-10T14:40:03.326Z,0.02
2022-12-10T14:45:03.114Z,0.02
2022-12-10T14:50:02.832Z,0.02
2022-12-10T14:55:01.013Z,0.01
2022-12-10T14:59:21.039Z,0.01
2022-12-10T15:04:29.387Z,0.01
2022-12-10T15:09:19.187Z,0
2022-12-10T15:14:18.948Z,0
2022-12-10T15:19:29.588Z,0
2022-12-10T15:24:28.807Z,0
2022-12-10T15:29:31.334Z,0
2022-12-10T15:34:30.869Z,0
2022-12-10T15:39:27.355Z,0
2022-12-10T15:44:26.118Z,0
2022-12-10T15:49:25.861Z,0
2022-12-10T15:54:25.222Z,0
2022-12-10T15:59:06.919Z,0
2022-12-10T16:04:07.259Z,0
2022-12-10T16:09:07.019Z,0
2022-12-10T16:14:05.628Z,0
2022-12-10T16:19:04.782Z,0
2022-12-10T16:24:04.407Z,0
2022-12-10T16:29:03.944Z,0
2022-12-10T16:34:03.220Z,0
2022-12-10T16:39:01.506Z,0
2022-12-10T16:44:00.993Z,0
2022-12-10T16:48:59.281Z,0
2022-12-10T16:53:59.523Z,0
2022-12-10T16:58:47.222Z,0
2022-12-10T17:03:46.217Z,0
2022-12-10T17:08:45.033Z,0
2022-12-10T17:13:44.865Z,0
2022-12-10T17:18:44.401Z,0
2022-12-10T17:23:43.595Z,0
2022-12-10T17:28:42.362Z,0
2022-12-10T17:33:41.317Z,0
2022-12-10T17:38:41.813Z,0
2022-12-10T17:43:40.436Z,0
2022-12-10T17:48:39.936Z,0
2022-12-10T17:53:38.837Z,0
2022-12-10T17:58:38.041Z,0
2022-12-10T18:03:36.906Z,0
2022-12-10T18:08:36.798Z,0
2022-12-10T18:13:36.382Z,0
2022-12-10T18:18:34.925Z,0
2022-12-10T18:23:34.215Z,0
2022-12-10T18:28:33.329Z,0
2022-12-10T18:33:32.960Z,0
2022-12-10T18:38:31.255Z,0
2022-12-10T18:43:31.721Z,0
2022-12-10T18:48:30.098Z,0
2022-12-10T18:53:29.856Z,0
2022-12-10T18:58:29.609Z,0
2022-12-10T19:03:29.670Z,0
2022-12-10T19:08:28.296Z,0
2022-12-10T19:13:28.002Z,0
2022-12-10T19:18:25.912Z,0
2022-12-10T19:23:25.943Z,0
2022-12-10T19:28:26.534Z,0
2022-12-10T19:33:24.462Z,0
2022-12-10T19:38:23.817Z,0
2022-12-10T19:43:22.672Z,0
2022-12-10T19:48:22.558Z,0
2022-12-10T19:53:22.069Z,0
2022-12-10T19:58:26.020Z,0
2022-12-10T20:03:25.516Z,0
2022-12-10T20:08:25.207Z,0
2022-12-10T20:13:24.575Z,0
2022-12-10T20:18:23.933Z,0
2022-12-10T20:23:23.694Z,0
2022-12-10T20:28:23.716Z,0
2022-12-10T20:33:48.984Z,0
2022-12-10T20:38:11.000Z,0
2022-12-10T20:43:10.604Z,0
2022-12-10T20:48:10.396Z,0
2022-12-10T20:53:08.975Z,0
2022-12-10T20:58:07.957Z,0
2022-12-10T20:59:28.145Z,0
2022-12-10T21:04:27.645Z,0
2022-12-10T21:09:28.265Z,0
2022-12-10T21:15:24.278Z,0
2022-12-10T21:19:25.351Z,0
2022-12-10T21:24:25.839Z,0
2022-12-10T21:29:24.446Z,0
2022-12-10T21:34:23.058Z,0
2022-12-10T21:39:27.834Z,0
2022-12-10T21:44:22.357Z,0
2022-12-10T21:49:21.172Z,0
2022-12-10T21:54:21.635Z,0
2022-12-10T21:59:08.118Z,0
2022-12-10T22:04:09.904Z,0
2022-12-10T22:09:08.270Z,0
2022-12-10T22:14:07.001Z,0
2022-12-10T22:19:06.483Z,0
2022-12-10T22:24:05.753Z,0
2022-12-10T22:29:04.839Z,0
2022-12-10T22:34:04.274Z,0
2022-12-10T22:39:03.263Z,0
2022-12-10T22:44:02.207Z,0
2022-12-10T22:49:02.007Z,0
2022-12-10T22:54:01.638Z,0
2022-12-10T22:59:01.088Z,0
2022-12-10T23:04:00.347Z,0
2022-12-10T23:08:58.878Z,0
2022-12-10T23:13:58.752Z,0
2022-12-10T23:18:58.056Z,0
2022-12-10T23:23:56.720Z,0
2022-12-10T23:28:55.527Z,0
2022-12-10T23:33:54.350Z,0
2022-12-10T23:38:54.246Z,0
2022-12-10T23:44:00.146Z,0
2022-12-10T23:48:53.595Z,0
2022-12-10T23:53:52.154Z,0
2022-12-10T23:58:51.617Z,0
